»·PEaware :: N756DR KGJT-KASE

N756DR :: KGJT-KASE

FLIGHT INFORMATION

Flight Status: Arrived
Operator: Privately registered:
United States
More flights under this callsign
Pilot: Anonymous 16551 (16551)
Aircraft: BEECH AIRCRAFT BARON
(BE58)
More flights by this aircraft type
Origin: KGJT Walker
United States
Destination: KASE Aspen-Pitkin Co/Sardy
United States
More flights between these airports :: More routes between these airports
Route: JNC7 PACES V134 LINDZ
File this flight plan on PilotEdge
Remarks:
Altitude:
(Current/Filed)
14,000ft
Speed:
(Current/Filed)
160kts
Departed: 08-Dec-17 04:23 PM
Arrived: 08-Dec-17 05:06 PM
Distance/Time
Traveled:
77nm/0:43
Distance/Time
To Go:
Arrived

Flight Plot

Page will automatically refresh every two minutes.

Flight plan parsing failed; only flown route is shown


Map Options




Map Legend


Flown Route
Filed Route
Departure Airport
Arrival Airport
Navaid (VOR, NDB)
Fix

Horizontal Profiles

Position Reports

Time Latitude Longitude Heading Altitude Ground
Speed
08-Dec-17 16:07 39.119092 -108.521316 127 4805ft 0kts
08-Dec-17 16:08 39.119092 -108.521316 127 4805ft 0kts
08-Dec-17 16:09 39.119092 -108.521316 127 4805ft 0kts
08-Dec-17 16:10 39.119092 -108.521316 127 4805ft 0kts
08-Dec-17 16:11 39.119092 -108.521316 127 4805ft 0kts
08-Dec-17 16:12 39.119092 -108.521316 127 4805ft 0kts
08-Dec-17 16:13 39.119092 -108.521316 127 4805ft 0kts
08-Dec-17 16:14 39.119092 -108.521316 127 4805ft 0kts
08-Dec-17 16:15 39.119092 -108.521316 127 4805ft 0kts
08-Dec-17 16:16 39.119092 -108.521316 127 4805ft 0kts
08-Dec-17 16:17 39.119092 -108.521316 127 4805ft 0kts
08-Dec-17 16:18 39.119092 -108.521316 127 4805ft 0kts
08-Dec-17 16:19 39.119092 -108.521316 127 4805ft 0kts
08-Dec-17 16:20 39.119092 -108.521316 127 4805ft 0kts
08-Dec-17 16:21 39.119092 -108.521316 127 4805ft 0kts
08-Dec-17 16:22 39.119092 -108.521316 127 4805ft 0kts
08-Dec-17 16:23 39.119092 -108.521316 127 4805ft 0kts
08-Dec-17 16:24 39.119351 -108.519881 37 4805ft 8kts
08-Dec-17 16:25 39.118244 -108.516315 125 4805ft 0kts
08-Dec-17 16:26 39.118244 -108.516315 125 4805ft 0kts
08-Dec-17 16:27 39.118641 -108.514664 328 4805ft 13kts
08-Dec-17 16:28 39.131474 -108.537343 305 5613ft 116kts
08-Dec-17 16:29 39.132296 -108.577744 244 6593ft 134kts
08-Dec-17 16:30 39.112477 -108.619765 249 7503ft 140kts
08-Dec-17 16:31 39.098191 -108.666594 258 8334ft 141kts
08-Dec-17 16:32 39.083442 -108.713969 253 9257ft 146kts
08-Dec-17 16:33 39.066906 -108.762459 257 10112ft 150kts
08-Dec-17 16:34 39.052014 -108.810421 191 10905ft 169kts
08-Dec-17 16:35 39.044494 -108.776885 44 11678ft 132kts
08-Dec-17 16:36 39.066921 -108.739745 49 12459ft 134kts
08-Dec-17 16:37 39.081625 -108.693283 64 13081ft 146kts
08-Dec-17 16:38 39.093090 -108.642817 67 13696ft 149kts
08-Dec-17 16:39 39.104405 -108.589202 64 14031ft 164kts
08-Dec-17 16:40 39.118826 -108.531158 66 14029ft 182kts
08-Dec-17 16:41 39.132229 -108.466874 68 13914ft 187kts
08-Dec-17 16:42 39.144656 -108.402788 66 13887ft 182kts
08-Dec-17 16:43 39.159712 -108.341703 66 13890ft 180kts
08-Dec-17 16:44 39.172517 -108.279626 69 13926ft 180kts
08-Dec-17 16:45 39.183472 -108.218974 68 13999ft 178kts
08-Dec-17 16:46 39.194453 -108.156496 70 14052ft 179kts
08-Dec-17 16:47 39.206025 -108.094270 67 14115ft 178kts
08-Dec-17 16:48 39.218155 -108.031754 67 14114ft 181kts
08-Dec-17 16:49 39.229900 -107.967815 70 14040ft 187kts
08-Dec-17 16:50 39.240364 -107.902031 70 14017ft 185kts
08-Dec-17 16:51 39.250084 -107.837098 73 14011ft 186kts
08-Dec-17 16:52 39.255753 -107.770503 77 14001ft 187kts
08-Dec-17 16:53 39.263793 -107.704739 69 13995ft 184kts
08-Dec-17 16:54 39.275679 -107.640641 64 13981ft 182kts
08-Dec-17 16:56 39.295207 -107.584058 54 14016ft 175kts
08-Dec-17 16:57 39.314025 -107.524855 59 14026ft 178kts
08-Dec-17 16:58 39.331855 -107.464849 65 14043ft 181kts
08-Dec-17 16:59 39.345972 -107.402227 64 14033ft 181kts
08-Dec-17 17:00 39.359079 -107.339020 70 14005ft 184kts
08-Dec-17 17:01 39.372289 -107.275771 57 13955ft 181kts
08-Dec-17 17:02 39.398396 -107.221623 48 13963ft 174kts
08-Dec-17 17:03 39.420897 -107.165005 59 13962ft 179kts
08-Dec-17 17:04 39.440276 -107.105462 59 13958ft 179kts
08-Dec-17 17:05 39.459698 -107.046305 59 13976ft 178kts
08-Dec-17 17:06 39.468353 -106.984633 133 13893ft 209kts
08-Dec-17 17:07 39.414726 -106.959769 159 14126ft 204kts
08-Dec-17 17:08 39.362172 -106.933069 160 13003ft 201kts
08-Dec-17 17:09 39.310919 -106.908585 160 10936ft 184kts
08-Dec-17 17:10 39.267584 -106.889908 160 8540ft 142kts
08-Dec-17 17:11 39.233754 -106.873885 161 7822ft 109kts
08-Dec-17 17:12 39.225112 -106.868761 29 7777ft 0kts
08-Dec-17 17:13 39.225909 -106.868992 339 7777ft 12kts
08-Dec-17 17:14 39.229047 -106.870523 340 7777ft 11kts
08-Dec-17 17:15 39.229356 -106.870222 69 7777ft 0kts
08-Dec-17 17:16 39.229356 -106.870222 69 7777ft 0kts

Navigation Log

Ident Type
Flight plan parsing failed, navigation log unavailable